New Champion — V7GG2 — position and weather

sailwx.info

Track history (hours):
 
Tides and Currents Weather Stations Pressure Air Temp Water Temp Dewpoint Dewpoint Depression Visibility Wind Speed Wind Dir Waves Ship Positions

New Champion

Last reported at 2015-Apr-21 00:29 UTC. Time now 2015-Apr-28 19:49 UTC.
Position N 01°25' E 103°56'.

Length 228 m; draft 11.4 m.

Type: Ship (hazmat cat A). MMSI: 537985031.

Date/timePositionNaut miles runAvg speedWind from/ knotsBaromVisibWave heightAir tempDewpointWater temp
2015-Apr-21 00:29N 01°25' E 103°56'8 8.3
2015-Apr-20 23:34N 01°21' E 104°03'4 3.5
2015-Apr-20 22:33N 01°20' E 104°06'0 0.0
2015-Apr-20 20:23N 01°20' E 104°06'0 0.0
2015-Apr-20 19:23N 01°20' E 104°06'0 0.0
2015-Apr-20 18:17N 01°20' E 104°06'0 0.1
2015-Apr-20 16:29N 01°20' E 104°06'0 0.0
2015-Apr-20 13:32N 01°20' E 104°06'0 0.0
2015-Apr-20 11:05N 01°20' E 104°06'0 0.1
2015-Apr-20 09:17N 01°20' E 104°06'0 0.1
2015-Apr-20 08:29N 01°20' E 104°06'0 0.0
2015-Apr-20 07:29N 01°20' E 104°06'0 0.0
2015-Apr-20 06:23N 01°20' E 104°06'0 0.2
2015-Apr-20 05:11N 01°20' E 104°06'0 0.0
2015-Apr-20 04:23N 01°20' E 104°06'0 0.0
2015-Apr-20 02:17N 01°20' E 104°06'0 0.0
2015-Apr-20 01:29N 01°20' E 104°06'0 0.0
2015-Apr-20 00:23N 01°20' E 104°06'0 0.1
2015-Apr-19 22:32N 01°20' E 104°06'0 0.1
2015-Apr-19 21:29N 01°20' E 104°06'0 0.0
2015-Apr-19 19:17N 01°20' E 104°06'0 0.0
2015-Apr-19 18:17N 01°20' E 104°06'0 0.0
2015-Apr-19 11:05N 01°20' E 104°06'0 0.0
2015-Apr-19 09:29N 01°20' E 104°06'0 0.1
2015-Apr-19 08:23N 01°20' E 104°06'0 0.0
2015-Apr-19 07:23N 01°20' E 104°06'0 0.1
2015-Apr-19 06:29N 01°20' E 104°06'0 0.1
2015-Apr-19 03:11N 01°20' E 104°06'0 0.0
2015-Apr-19 02:05N 01°20' E 104°06'0 0.1
2015-Apr-18 23:32N 01°20' E 104°06'0 0.1
2015-Apr-18 21:08N 01°20' E 104°06'0 0.1
2015-Apr-18 20:29N 01°20' E 104°06'0 0.0
2015-Apr-18 19:29N 01°20' E 104°06'0 0.0
2015-Apr-18 18:23N 01°20' E 104°06'0 0.0
2015-Apr-18 17:17N 01°20' E 104°06'0 0.0
2015-Apr-18 08:29N 01°20' E 104°06'0 0.1
2015-Apr-18 07:20N 01°20' E 104°06'0 0.0
2015-Apr-18 06:29N 01°20' E 104°06'0 0.0
2015-Apr-18 05:29N 01°20' E 104°06'0 0.2
2015-Apr-18 03:29N 01°19' E 104°06'5 4.6
2015-Apr-18 02:29N 01°17' E 104°10'  
2015-Apr-13 11:14N 01°41' E 104°29'0 0.0
2015-Apr-13 10:32N 01°41' E 104°29'1 0.9
2015-Apr-13 09:33N 01°41' E 104°30'9 9.4
2015-Apr-13 08:33N 01°33' E 104°35'2711.6
2015-Apr-13 06:13N 01°16' E 104°14'913.1
2015-Apr-13 05:33N 01°15' E 104°05'1613.7
2015-Apr-13 04:24N 01°10' E 103°50'8 0.4
2015-Apr-12 08:23N 01°11' E 103°42'0 0.0
2015-Apr-12 02:18N 01°12' E 103°42'  
Track history (hours):
 
Tides and Currents Weather Stations Pressure Air Temp Water Temp Dewpoint Dewpoint Depression Visibility Wind Speed Wind Dir Waves Ship Positions

New Champion

Last reported at 2015-Apr-21 00:29 UTC. Time now 2015-Apr-28 19:49 UTC.
Position N 01°25' E 103°56'.

Length 228 m; draft 11.4 m.

Type: Ship (hazmat cat A). MMSI: 537985031.

Date/timePositionNaut miles runAvg speedWind from/ knotsBaromVisibWave heightAir tempDewpointWater temp
2015-Apr-21 00:29N 01°25' E 103°56'8 8.3
2015-Apr-20 23:34N 01°21' E 104°03'4 3.5
2015-Apr-20 22:33N 01°20' E 104°06'0 0.0
2015-Apr-20 20:23N 01°20' E 104°06'0 0.0
2015-Apr-20 19:23N 01°20' E 104°06'0 0.0
2015-Apr-20 18:17N 01°20' E 104°06'0 0.1
2015-Apr-20 16:29N 01°20' E 104°06'0 0.0
2015-Apr-20 13:32N 01°20' E 104°06'0 0.0
2015-Apr-20 11:05N 01°20' E 104°06'0 0.1
2015-Apr-20 09:17N 01°20' E 104°06'0 0.1
2015-Apr-20 08:29N 01°20' E 104°06'0 0.0
2015-Apr-20 07:29N 01°20' E 104°06'0 0.0
2015-Apr-20 06:23N 01°20' E 104°06'0 0.2
2015-Apr-20 05:11N 01°20' E 104°06'0 0.0
2015-Apr-20 04:23N 01°20' E 104°06'0 0.0
2015-Apr-20 02:17N 01°20' E 104°06'0 0.0
2015-Apr-20 01:29N 01°20' E 104°06'0 0.0
2015-Apr-20 00:23N 01°20' E 104°06'0 0.1
2015-Apr-19 22:32N 01°20' E 104°06'0 0.1
2015-Apr-19 21:29N 01°20' E 104°06'0 0.0
2015-Apr-19 19:17N 01°20' E 104°06'0 0.0
2015-Apr-19 18:17N 01°20' E 104°06'0 0.0
2015-Apr-19 11:05N 01°20' E 104°06'0 0.0
2015-Apr-19 09:29N 01°20' E 104°06'0 0.1
2015-Apr-19 08:23N 01°20' E 104°06'0 0.0
2015-Apr-19 07:23N 01°20' E 104°06'0 0.1
2015-Apr-19 06:29N 01°20' E 104°06'0 0.1
2015-Apr-19 03:11N 01°20' E 104°06'0 0.0
2015-Apr-19 02:05N 01°20' E 104°06'0 0.1
2015-Apr-18 23:32N 01°20' E 104°06'0 0.1
2015-Apr-18 21:08N 01°20' E 104°06'0 0.1
2015-Apr-18 20:29N 01°20' E 104°06'0 0.0
2015-Apr-18 19:29N 01°20' E 104°06'0 0.0
2015-Apr-18 18:23N 01°20' E 104°06'0 0.0
2015-Apr-18 17:17N 01°20' E 104°06'0 0.0
2015-Apr-18 08:29N 01°20' E 104°06'0 0.1
2015-Apr-18 07:20N 01°20' E 104°06'0 0.0
2015-Apr-18 06:29N 01°20' E 104°06'0 0.0
2015-Apr-18 05:29N 01°20' E 104°06'0 0.2
2015-Apr-18 03:29N 01°19' E 104°06'5 4.6
2015-Apr-18 02:29N 01°17' E 104°10'  
2015-Apr-13 11:14N 01°41' E 104°29'0 0.0
2015-Apr-13 10:32N 01°41' E 104°29'1 0.9
2015-Apr-13 09:33N 01°41' E 104°30'9 9.4
2015-Apr-13 08:33N 01°33' E 104°35'2711.6
2015-Apr-13 06:13N 01°16' E 104°14'913.1
2015-Apr-13 05:33N 01°15' E 104°05'1613.7
2015-Apr-13 04:24N 01°10' E 103°50'8 0.4
2015-Apr-12 08:23N 01°11' E 103°42'0 0.0
2015-Apr-12 02:18N 01°12' E 103°42'  

Dump ship's entire track history